Star Mariella — V7KK3 — position and weather

sailwx.info

Track history (hours):
 
Tides and Currents Weather Stations Pressure Air Temp Water Temp Dewpoint Dewpoint Depression Visibility Wind Speed Wind Dir Waves Ship Positions

Star Mariella

Last reported at 2018-Apr-16 02:26 UTC. Time now 2018-Apr-24 10:38 UTC.
Position N 46°12' W 125°19'.
Warning: this ship's position is 8 days out of date.

Length 229 m; draft 12.7 m.

Type: Cargo ship. MMSI: 538002632.

Date/timePositionNaut miles runAvg speedWind from/ knotsBaromVisibWave heightAir tempDewpointWater temp
2018-Apr-16 02:26N 46°12' W 125°19'4 9.2
2018-Apr-16 02:00N 46°12' W 125°13'5 9.2
2018-Apr-16 01:30N 46°12' W 125°06'5 9.6
2018-Apr-16 01:00N 46°12' W 124°60'5 9.7
2018-Apr-16 00:31N 46°12' W 124°53'5 9.9
2018-Apr-16 00:01N 46°12' W 124°45'510.3
2018-Apr-15 23:31N 46°12' W 124°38'510.4
2018-Apr-15 23:00N 46°13' W 124°30'510.0
2018-Apr-15 22:31N 46°13' W 124°23'5 9.7
2018-Apr-15 22:01N 46°12' W 124°16'5 9.8
2018-Apr-15 21:31N 46°12' W 124°09'5 9.1
2018-Apr-15 21:01N 46°15' W 124°05'4 8.8
2018-Apr-15 20:31N 46°14' W 123°59'4 8.6
2018-Apr-15 20:00N 46°11' W 123°53'4 8.8
2018-Apr-15 19:31N 46°13' W 123°47'5 9.6
2018-Apr-15 19:00N 46°15' W 123°41'510.4
2018-Apr-15 18:31N 46°15' W 123°34'510.0
2018-Apr-15 18:01N 46°15' W 123°27'611.3
2018-Apr-15 17:31N 46°10' W 123°24'611.5
2018-Apr-15 17:00N 46°09' W 123°16'612.5
2018-Apr-15 16:30N 46°11' W 123°08'612.6
2018-Apr-15 16:00N 46°08' W 122°60'510.0
2018-Apr-15 15:30N 46°05' W 122°54'5 9.8
2018-Apr-15 15:00N 46°00' W 122°51'510.4
2018-Apr-15 14:30N 45°56' W 122°48'611.7
2018-Apr-15 14:00N 45°50' W 122°48'611.8
2018-Apr-15 13:30N 45°44' W 122°46'5 9.8
2018-Apr-15 13:00N 45°39' W 122°46'0 0.3
2018-Apr-15 12:29N 45°39' W 122°46'0 0.0
2018-Apr-15 11:59N 45°39' W 122°46'0 0.0
2018-Apr-15 11:26N 45°39' W 122°46'0 0.0
2018-Apr-15 10:56N 45°39' W 122°46'0 0.0
2018-Apr-15 10:23N 45°39' W 122°46'0 0.0
2018-Apr-15 09:56N 45°39' W 122°46'0 0.0
2018-Apr-15 09:20N 45°39' W 122°46'0 0.0
2018-Apr-15 08:58N 45°39' W 122°46'0 0.7
2018-Apr-15 08:30N 45°39' W 122°46'1 0.9
2018-Apr-15 07:52N 45°39' W 122°46'0 0.0
2018-Apr-15 07:29N 45°39' W 122°46'0 0.0
2018-Apr-15 06:58N 45°39' W 122°46'0 0.0
2018-Apr-15 06:26N 45°39' W 122°46'0 0.0
2018-Apr-15 05:59N 45°39' W 122°46'0 0.0
2018-Apr-15 05:02N 45°39' W 122°46'0 0.0
2018-Apr-15 04:58N 45°39' W 122°46'0 0.0
2018-Apr-15 04:25N 45°39' W 122°46'0 0.0
2018-Apr-15 03:59N 45°39' W 122°46'0 0.0
2018-Apr-15 03:29N 45°39' W 122°46'0 0.0
2018-Apr-15 02:59N 45°39' W 122°46'0 0.0
2018-Apr-15 02:29N 45°39' W 122°46'0 0.0
2018-Apr-15 01:59N 45°39' W 122°46'0 0.0
2018-Apr-15 01:29N 45°39' W 122°46'0 0.0
2018-Apr-15 00:59N 45°39' W 122°46'0 0.0
2018-Apr-15 00:25N 45°39' W 122°46'0 0.1
2018-Apr-14 23:56N 45°39' W 122°46'0 0.0
2018-Apr-14 23:28N 45°39' W 122°46'0 0.0
2018-Apr-14 22:55N 45°39' W 122°46'0 0.0
2018-Apr-14 22:29N 45°39' W 122°46'0 0.0
2018-Apr-14 21:56N 45°39' W 122°46'0 0.0
2018-Apr-14 21:25N 45°39' W 122°46'0 0.0
2018-Apr-14 20:52N 45°39' W 122°46'0 0.0
2018-Apr-14 20:02N 45°39' W 122°46'0 0.1
2018-Apr-14 19:58N 45°39' W 122°46'0 0.0
2018-Apr-14 19:29N 45°39' W 122°46'0 0.0
2018-Apr-14 18:58N 45°39' W 122°46'0 0.0
2018-Apr-14 18:25N 45°39' W 122°46'0 0.0
2018-Apr-14 17:59N 45°39' W 122°46'0 0.0
2018-Apr-14 17:29N 45°39' W 122°46'0 0.0
2018-Apr-14 16:59N 45°39' W 122°46'0 0.0
2018-Apr-14 16:29N 45°39' W 122°46'0 0.0
2018-Apr-14 15:55N 45°39' W 122°46'0 0.0
2018-Apr-14 15:29N 45°39' W 122°46'0 0.0
2018-Apr-14 14:58N 45°39' W 122°46'0 0.0
2018-Apr-14 14:22N 45°39' W 122°46'0 0.0
2018-Apr-14 13:55N 45°39' W 122°46'0 0.0
2018-Apr-14 13:20N 45°39' W 122°46'0 0.0
2018-Apr-14 12:56N 45°39' W 122°46'0 0.0
2018-Apr-14 12:29N 45°39' W 122°46'0 0.0
2018-Apr-14 11:59N 45°39' W 122°46'0 0.0
2018-Apr-14 11:28N 45°39' W 122°46'0 0.0
2018-Apr-14 10:55N 45°39' W 122°46'0 0.0
2018-Apr-14 10:01N 45°39' W 122°46'0 0.0
2018-Apr-14 09:58N 45°39' W 122°46'0 0.0
2018-Apr-14 09:28N 45°39' W 122°46'0 0.0
2018-Apr-14 08:50N 45°39' W 122°46'0 0.0
2018-Apr-14 08:23N 45°39' W 122°46'0 0.0
2018-Apr-14 07:56N 45°39' W 122°46'0 0.0
2018-Apr-14 07:28N 45°39' W 122°46'0 0.0
2018-Apr-14 06:59N 45°39' W 122°46'0 0.0
2018-Apr-14 06:28N 45°39' W 122°46'0 0.0
2018-Apr-14 05:44N 45°39' W 122°46'0 0.0
2018-Apr-14 05:28N 45°39' W 122°46'0 0.0
2018-Apr-14 04:56N 45°39' W 122°46'0 0.0
2018-Apr-14 04:22N 45°39' W 122°46'0 0.0
2018-Apr-14 03:38N 45°39' W 122°46'0 0.0
2018-Apr-14 03:20N 45°39' W 122°46'0 0.0
2018-Apr-14 02:49N 45°39' W 122°46'0 0.0
2018-Apr-14 02:28N 45°39' W 122°46'0 0.0
2018-Apr-14 01:58N 45°39' W 122°46'0 0.0
2018-Apr-14 01:28N 45°39' W 122°46'0 0.0
2018-Apr-14 00:52N 45°39' W 122°46'0 0.0
2018-Apr-14 00:28N 45°39' W 122°46'0 0.0
2018-Apr-13 23:59N 45°39' W 122°46'0 0.0
2018-Apr-13 23:25N 45°39' W 122°46'0 0.0
2018-Apr-13 22:52N 45°39' W 122°46'0 0.0
2018-Apr-13 22:25N 45°39' W 122°46'0 0.0
2018-Apr-13 21:58N 45°39' W 122°46'0 0.0
2018-Apr-13 21:23N 45°39' W 122°46'0 0.0
2018-Apr-13 20:52N 45°39' W 122°46'0 0.0
2018-Apr-13 20:26N 45°39' W 122°46'0 0.0
2018-Apr-13 19:53N 45°39' W 122°46'0 0.0
2018-Apr-13 19:29N 45°39' W 122°46'0 0.0
2018-Apr-13 18:59N 45°39' W 122°46'0 0.0
2018-Apr-13 18:14N 45°39' W 122°46'0 0.0
2018-Apr-13 17:59N 45°39' W 122°46'0 0.0
2018-Apr-13 17:16N 45°39' W 122°46'0 0.0
2018-Apr-13 16:38N 45°39' W 122°46'0 0.0
2018-Apr-13 16:25N 45°39' W 122°46'0 0.1
2018-Apr-13 15:58N 45°39' W 122°46'0 0.1
2018-Apr-13 15:25N 45°39' W 122°46'0 0.0
2018-Apr-13 14:58N 45°39' W 122°46'0 0.0
2018-Apr-13 14:28N 45°39' W 122°46'0 0.0
2018-Apr-13 13:58N 45°39' W 122°46'0 0.0
2018-Apr-13 13:25N 45°39' W 122°46'0 0.0
2018-Apr-13 12:58N 45°39' W 122°46'0 0.0
2018-Apr-13 12:28N 45°39' W 122°46'0 0.0
2018-Apr-13 11:59N 45°39' W 122°46'0 0.0
2018-Apr-13 11:28N 45°39' W 122°46'0 0.0
2018-Apr-13 10:58N 45°39' W 122°46'0 0.0
2018-Apr-13 10:28N 45°39' W 122°46'0 0.0
2018-Apr-13 09:52N 45°39' W 122°46'0 0.0
2018-Apr-13 09:25N 45°39' W 122°46'0 0.0
2018-Apr-13 08:58N 45°39' W 122°46'0 0.0
2018-Apr-13 08:28N 45°39' W 122°46'0 0.0
2018-Apr-13 07:52N 45°39' W 122°46'0 0.0
2018-Apr-13 07:28N 45°39' W 122°46'0 0.0
2018-Apr-13 06:55N 45°39' W 122°46'0 0.0
2018-Apr-13 06:28N 45°39' W 122°46'0 0.0
2018-Apr-13 05:58N 45°39' W 122°46'0 0.0
2018-Apr-13 05:28N 45°39' W 122°46'0 0.0
2018-Apr-13 04:58N 45°39' W 122°46'0 0.0
2018-Apr-13 04:28N 45°39' W 122°46'0 0.0
2018-Apr-13 03:40N 45°39' W 122°46'0 0.0
2018-Apr-13 03:20N 45°39' W 122°46'0 0.0
2018-Apr-13 02:58N 45°39' W 122°46'0 0.0
2018-Apr-13 02:28N 45°39' W 122°46'0 0.0
2018-Apr-13 01:52N 45°39' W 122°46'0 0.0
2018-Apr-13 01:19N 45°39' W 122°46'0 0.0
2018-Apr-13 00:58N 45°39' W 122°46'0 0.0
2018-Apr-13 00:28N 45°39' W 122°46'0 0.1
2018-Apr-12 23:43N 45°39' W 122°46'0 0.1
2018-Apr-12 23:22N 45°39' W 122°46'0 0.0
2018-Apr-12 22:58N 45°39' W 122°46'0 0.0
2018-Apr-12 22:28N 45°39' W 122°46'0 0.1
2018-Apr-12 21:52N 45°39' W 122°46'0 0.0
2018-Apr-12 21:28N 45°39' W 122°46'0 0.0
2018-Apr-12 20:31N 45°39' W 122°46'0 0.0
2018-Apr-12 20:16N 45°39' W 122°46'0 0.0
2018-Apr-12 19:58N 45°39' W 122°46'0 0.0
2018-Apr-12 19:28N 45°39' W 122°46'0 0.0
2018-Apr-12 18:58N 45°39' W 122°46'0 0.0
2018-Apr-12 18:25N 45°39' W 122°46'0 0.0
2018-Apr-12 17:52N 45°39' W 122°46'0 0.0
2018-Apr-12 17:25N 45°39' W 122°46'0 0.0
2018-Apr-12 16:58N 45°39' W 122°46'0 0.0
2018-Apr-12 16:25N 45°39' W 122°46'0 0.0
2018-Apr-12 15:58N 45°39' W 122°46'0 0.0
2018-Apr-12 15:22N 45°39' W 122°46'0 0.0
2018-Apr-12 14:58N 45°39' W 122°46'0 0.0
2018-Apr-12 14:28N 45°39' W 122°46'0 0.0
2018-Apr-12 13:58N 45°39' W 122°46'0 0.0
2018-Apr-12 13:28N 45°39' W 122°46'0 0.0
2018-Apr-12 12:43N 45°39' W 122°46'0 0.0
2018-Apr-12 12:22N 45°39' W 122°46'0 0.0
2018-Apr-12 11:58N 45°39' W 122°46'0 0.0
2018-Apr-12 11:25N 45°39' W 122°46'0 0.0
2018-Apr-12 10:58N 45°39' W 122°46'0 0.0
2018-Apr-12 10:28N 45°39' W 122°46'0 0.0
2018-Apr-12 09:58N 45°39' W 122°46'0 0.0
2018-Apr-12 09:28N 45°39' W 122°46'0 0.0
2018-Apr-12 08:58N 45°39' W 122°46'0 0.0
2018-Apr-12 08:28N 45°39' W 122°46'0 0.0
2018-Apr-12 07:58N 45°39' W 122°46'0 0.0
2018-Apr-12 07:22N 45°39' W 122°46'0 0.0
2018-Apr-12 06:58N 45°39' W 122°46'0 0.0
2018-Apr-12 06:25N 45°39' W 122°46'0 0.0
2018-Apr-12 05:55N 45°39' W 122°46'0 0.0
2018-Apr-12 05:28N 45°39' W 122°46'0 0.0
2018-Apr-12 04:55N 45°39' W 122°46'0 0.0
2018-Apr-12 04:25N 45°39' W 122°46'0 0.0
2018-Apr-12 03:58N 45°39' W 122°46'0 0.0
2018-Apr-12 03:25N 45°39' W 122°46'0 0.0
2018-Apr-12 02:58N 45°39' W 122°46'0 0.0
2018-Apr-12 02:28N 45°39' W 122°46'0 0.0
2018-Apr-12 01:58N 45°39' W 122°46'0 0.0
2018-Apr-12 01:28N 45°39' W 122°46'0 0.0
2018-Apr-12 00:43N 45°39' W 122°46'0 0.0
2018-Apr-12 00:28N 45°39' W 122°46'0 0.0
2018-Apr-11 23:58N 45°39' W 122°46'0 0.0
2018-Apr-11 23:25N 45°39' W 122°46'0 0.0
2018-Apr-11 22:58N 45°39' W 122°46'0 0.0
2018-Apr-11 22:28N 45°39' W 122°46'0 0.0
2018-Apr-11 21:52N 45°39' W 122°46'0 0.0
2018-Apr-11 21:25N 45°39' W 122°46'0 0.0
2018-Apr-11 20:58N 45°39' W 122°46'0 0.0
2018-Apr-11 20:28N 45°39' W 122°46'0 0.0
2018-Apr-11 19:55N 45°39' W 122°46'0 0.0
2018-Apr-11 19:28N 45°39' W 122°46'0 0.0
2018-Apr-11 18:58N 45°39' W 122°46'0 0.1
2018-Apr-11 18:28N 45°39' W 122°46'0 0.0
2018-Apr-11 17:55N 45°39' W 122°46'0 0.0
2018-Apr-11 17:28N 45°39' W 122°46'0 0.0
2018-Apr-11 16:58N 45°39' W 122°46'0 0.0
2018-Apr-11 16:25N 45°39' W 122°46'0 0.0
2018-Apr-11 15:58N 45°39' W 122°46'0 0.0
2018-Apr-11 15:28N 45°39' W 122°46'0 0.0
2018-Apr-11 14:58N 45°39' W 122°46'0 0.0
2018-Apr-11 14:19N 45°39' W 122°46'0 0.0
2018-Apr-11 13:46N 45°39' W 122°46'0 0.0
2018-Apr-11 13:28N 45°39' W 122°46'0 0.0
2018-Apr-11 12:55N 45°39' W 122°46'0 0.0
2018-Apr-11 12:28N 45°39' W 122°46'0 0.0
2018-Apr-11 11:55N 45°39' W 122°46'0 0.0
2018-Apr-11 11:28N 45°39' W 122°46'0 0.0
2018-Apr-11 10:58N 45°39' W 122°46'0 0.0
2018-Apr-11 10:25N 45°39' W 122°46'0 0.0
2018-Apr-11 09:52N 45°39' W 122°46'0 0.0
2018-Apr-11 09:28N 45°39' W 122°46'0 0.0
2018-Apr-11 08:58N 45°39' W 122°46'0 0.0
2018-Apr-11 08:22N 45°39' W 122°46'0 0.0
2018-Apr-11 07:58N 45°39' W 122°46'0 0.0
2018-Apr-11 07:25N 45°39' W 122°46'0 0.0
2018-Apr-11 06:55N 45°39' W 122°46'0 0.0
2018-Apr-11 06:28N 45°39' W 122°46'0 0.0
2018-Apr-11 05:58N 45°39' W 122°46'0 0.0
2018-Apr-11 05:19N 45°39' W 122°46'0 0.0
2018-Apr-11 04:58N 45°39' W 122°46'0 0.0
2018-Apr-11 04:25N 45°39' W 122°46'0 0.0
2018-Apr-11 03:58N 45°39' W 122°46'0 0.0
2018-Apr-11 03:28N 45°39' W 122°46'0 0.7
2018-Apr-11 03:00N 45°39' W 122°46'4 7.7
2018-Apr-11 02:30N 45°43' W 122°46'5 9.7
2018-Apr-11 02:00N 45°48' W 122°47'5 9.2
2018-Apr-11 01:29N 45°52' W 122°47'6 9.2
2018-Apr-11 00:47N 45°58' W 122°50'3 9.8
2018-Apr-11 00:30N 46°01' W 122°52'5 9.0
2018-Apr-11 00:00N 46°05' W 122°54'5 9.7
2018-Apr-10 23:30N 46°08' W 123°00'5 9.5
2018-Apr-10 23:00N 46°10' W 123°06'4 8.8
2018-Apr-10 22:30N 46°11' W 123°12'5 9.6
2018-Apr-10 22:00N 46°09' W 123°18'5 9.0
2018-Apr-10 21:30N 46°10' W 123°25'5 9.3
2018-Apr-10 21:00N 46°15' W 123°26'4 8.9
2018-Apr-10 20:30N 46°16' W 123°32'510.6
2018-Apr-10 20:00N 46°15' W 123°40'2 4.3
2018-Apr-10 19:26N 46°14' W 123°43'0 0.1
2018-Apr-10 18:53N 46°14' W 123°43'0 0.0
2018-Apr-10 18:26N 46°14' W 123°43'0 0.2
2018-Apr-10 17:56N 46°15' W 123°43'0 0.2
2018-Apr-10 17:30N 46°15' W 123°43'0 0.1
2018-Apr-10 16:59N 46°15' W 123°43'0 0.0
2018-Apr-10 16:29N 46°15' W 123°43'0 0.0
2018-Apr-10 16:00N 46°15' W 123°43'0 0.0
2018-Apr-10 15:29N 46°15' W 123°43'0 0.2
2018-Apr-10 14:56N 46°15' W 123°43'0 0.1
2018-Apr-10 14:30N 46°15' W 123°43'0 0.0
2018-Apr-10 13:59N 46°15' W 123°43'0 0.0
2018-Apr-10 13:30N 46°15' W 123°43'0 0.5
2018-Apr-10 12:59N 46°14' W 123°43'0 0.0
2018-Apr-10 12:29N 46°14' W 123°43'0 0.1
2018-Apr-10 11:56N 46°14' W 123°43'0 0.1
2018-Apr-10 11:02N 46°14' W 123°43'0 0.0
2018-Apr-10 10:59N 46°14' W 123°43'0 0.1
2018-Apr-10 10:29N 46°14' W 123°43'0 0.0
2018-Apr-10 09:53N 46°14' W 123°43'0 0.1
2018-Apr-10 09:29N 46°14' W 123°43'0 0.0
2018-Apr-10 08:59N 46°14' W 123°43'0 0.1
2018-Apr-10 08:29N 46°14' W 123°43'0 0.0
2018-Apr-10 07:59N 46°14' W 123°43'0 0.0
2018-Apr-10 07:23N 46°14' W 123°43'0 0.0
2018-Apr-10 06:59N 46°14' W 123°43'0 0.1
2018-Apr-10 06:29N 46°14' W 123°43'0 0.1
2018-Apr-10 05:59N 46°14' W 123°43'0 0.0
2018-Apr-10 05:29N 46°14' W 123°43'0 0.0
2018-Apr-10 04:56N 46°14' W 123°43'0 0.1
2018-Apr-10 04:29N 46°14' W 123°43'0 0.1
2018-Apr-10 03:53N 46°14' W 123°43'0 0.0
2018-Apr-10 03:29N 46°14' W 123°43'0 0.0
2018-Apr-10 02:43N 46°14' W 123°43'0 0.2
2018-Apr-10 02:29N 46°14' W 123°43'0 0.1
2018-Apr-10 01:59N 46°14' W 123°43'0 0.0
2018-Apr-10 01:29N 46°14' W 123°43'0 0.0
2018-Apr-10 00:59N 46°14' W 123°43'0 0.0
2018-Apr-10 00:29N 46°14' W 123°43'0 0.0
2018-Apr-09 23:59N 46°14' W 123°43'0 0.0
2018-Apr-09 23:29N 46°14' W 123°43'0 0.0
2018-Apr-09 22:56N 46°14' W 123°43'0 0.0
2018-Apr-09 22:29N 46°14' W 123°43'0 0.0
2018-Apr-09 21:38N 46°14' W 123°43'0 0.0
2018-Apr-09 21:29N 46°14' W 123°43'0 0.0
2018-Apr-09 20:59N 46°14' W 123°43'0 0.0
2018-Apr-09 20:29N 46°14' W 123°43'0 0.0
2018-Apr-09 19:53N 46°14' W 123°43'0 0.0
2018-Apr-09 19:17N 46°14' W 123°43'0 0.0
2018-Apr-09 18:59N 46°14' W 123°43'0 0.0
2018-Apr-09 18:26N 46°14' W 123°43'0 0.0
2018-Apr-09 17:47N 46°14' W 123°43'0 0.0
2018-Apr-09 17:14N 46°14' W 123°43'0 0.1
2018-Apr-09 16:50N 46°14' W 123°43'0 0.0
2018-Apr-09 16:29N 46°14' W 123°43'0 0.1
2018-Apr-09 15:59N 46°14' W 123°43'0 0.0
2018-Apr-09 15:29N 46°14' W 123°43'0 0.1
2018-Apr-09 14:56N 46°14' W 123°43'0 0.0
2018-Apr-09 14:29N 46°14' W 123°43'0 0.0
2018-Apr-09 13:56N 46°14' W 123°43'0 0.0
2018-Apr-09 13:29N 46°14' W 123°43'0 0.0
2018-Apr-09 12:59N 46°14' W 123°43'0 0.0
2018-Apr-09 12:17N 46°14' W 123°43'0 0.0
2018-Apr-09 11:41N 46°14' W 123°43'0 0.0
2018-Apr-09 11:29N 46°14' W 123°43'0 0.0
2018-Apr-09 10:47N 46°14' W 123°43'0 0.0
2018-Apr-09 10:29N 46°14' W 123°43'0 0.0
2018-Apr-09 09:59N 46°14' W 123°43'0 0.0
2018-Apr-09 09:29N 46°14' W 123°43'0 0.0
2018-Apr-09 08:59N 46°14' W 123°43'0 0.0
2018-Apr-09 08:29N 46°14' W 123°43'0 0.0
2018-Apr-09 07:59N 46°14' W 123°43'0 0.0
2018-Apr-09 07:29N 46°14' W 123°43'0 0.0
2018-Apr-09 06:53N 46°14' W 123°43'0 0.0
2018-Apr-09 06:29N 46°14' W 123°43'0 0.0
2018-Apr-09 05:59N 46°14' W 123°43'0 0.1
2018-Apr-09 05:29N 46°14' W 123°43'0 0.1
2018-Apr-09 04:59N 46°14' W 123°43'0 0.1
2018-Apr-09 04:29N 46°15' W 123°43'0 0.2
2018-Apr-09 03:59N 46°15' W 123°43'0 0.1
2018-Apr-09 03:29N 46°15' W 123°43'0 0.1
2018-Apr-09 02:53N 46°14' W 123°43'0 0.0
2018-Apr-09 02:29N 46°14' W 123°43'0 0.1
2018-Apr-09 01:59N 46°14' W 123°43'0 0.1
2018-Apr-09 01:29N 46°14' W 123°43'0 0.2
2018-Apr-09 00:59N 46°14' W 123°43'0 0.1
2018-Apr-09 00:29N 46°14' W 123°43'0 0.1
2018-Apr-08 23:59N 46°14' W 123°43'0 0.0
2018-Apr-08 23:29N 46°14' W 123°43'0 0.0
2018-Apr-08 22:59N 46°14' W 123°43'0 0.0
2018-Apr-08 22:29N 46°14' W 123°43'0 0.0
2018-Apr-08 21:47N 46°14' W 123°43'0 0.0
2018-Apr-08 21:26N 46°14' W 123°43'0 0.0
2018-Apr-08 20:59N 46°14' W 123°43'0 0.0
2018-Apr-08 20:29N 46°14' W 123°43'0 0.0
2018-Apr-08 19:53N 46°14' W 123°43'0 0.0
2018-Apr-08 19:11N 46°14' W 123°43'0 0.1
2018-Apr-08 18:59N 46°14' W 123°43'0 0.0
2018-Apr-08 18:29N 46°14' W 123°43'0 0.1
2018-Apr-08 17:59N 46°14' W 123°43'0 0.1
2018-Apr-08 17:26N 46°15' W 123°43'0 0.1
2018-Apr-08 16:59N 46°15' W 123°43'0 0.1
2018-Apr-08 15:53N 46°15' W 123°43'0 0.0
2018-Apr-08 15:29N 46°15' W 123°43'0 0.0
2018-Apr-08 14:59N 46°15' W 123°43'0 0.1
2018-Apr-08 14:26N 46°15' W 123°43'0 0.1
2018-Apr-08 13:56N 46°15' W 123°43'0 0.1
2018-Apr-08 13:29N 46°15' W 123°43'0 0.2
2018-Apr-08 12:59N 46°15' W 123°43'0 0.1
2018-Apr-08 12:29N 46°15' W 123°43'0 0.0
2018-Apr-08 11:56N 46°15' W 123°43'0 0.0
2018-Apr-08 11:29N 46°15' W 123°43'0 0.1
2018-Apr-08 10:59N 46°15' W 123°43'0 0.0
2018-Apr-08 10:29N 46°15' W 123°43'0 0.0
2018-Apr-08 09:59N 46°15' W 123°43'0 0.1
2018-Apr-08 09:29N 46°15' W 123°43'0 0.2
2018-Apr-08 08:59N 46°15' W 123°43'0 0.0
2018-Apr-08 08:29N 46°15' W 123°43'0 0.1
2018-Apr-08 07:59N 46°15' W 123°43'0 0.1
2018-Apr-08 07:29N 46°15' W 123°43'0 0.0
2018-Apr-08 06:47N 46°15' W 123°43'0 0.1
2018-Apr-08 06:26N 46°15' W 123°43'0 0.1
2018-Apr-08 05:56N 46°15' W 123°43'0 0.1
2018-Apr-08 05:26N 46°15' W 123°43'0 0.1
2018-Apr-08 04:59N 46°15' W 123°43'0 0.0
2018-Apr-08 04:11N 46°15' W 123°43'0 0.2
2018-Apr-08 03:56N 46°15' W 123°43'0 0.0
2018-Apr-08 03:29N 46°15' W 123°43'0 0.0
2018-Apr-08 02:41N 46°15' W 123°43'0 0.0
2018-Apr-08 02:17N 46°15' W 123°43'0 0.1
2018-Apr-08 01:59N 46°15' W 123°43'0 0.2
2018-Apr-08 01:29N 46°15' W 123°43'0 0.1
2018-Apr-08 00:59N 46°15' W 123°43'0 0.1
2018-Apr-08 00:29N 46°15' W 123°43'0 0.1
2018-Apr-07 23:59N 46°15' W 123°43'0 0.0
2018-Apr-07 23:29N 46°15' W 123°43'0 0.2
2018-Apr-07 22:59N 46°15' W 123°43'0 0.1
2018-Apr-07 22:29N 46°15' W 123°43'0 0.1
2018-Apr-07 21:59N 46°15' W 123°43'0 0.3
2018-Apr-07 21:29N 46°14' W 123°43'0 0.0
2018-Apr-07 20:59N 46°14' W 123°43'0 0.0
2018-Apr-07 20:29N 46°14' W 123°43'0 0.0
2018-Apr-07 19:56N 46°14' W 123°43'0 0.1
2018-Apr-07 19:26N 46°14' W 123°43'0 0.0
2018-Apr-07 18:59N 46°14' W 123°43'0 0.0
2018-Apr-07 18:29N 46°14' W 123°43'0 0.1
2018-Apr-07 17:59N 46°14' W 123°43'0 0.1
2018-Apr-07 17:11N 46°15' W 123°43'0 0.0
2018-Apr-07 16:59N 46°15' W 123°43'0 0.1
2018-Apr-07 16:26N 46°15' W 123°43'0 0.2
2018-Apr-07 15:56N 46°15' W 123°43'0 0.0
2018-Apr-07 15:26N 46°15' W 123°43'0 0.1
2018-Apr-07 14:41N 46°15' W 123°43'0 0.2
2018-Apr-07 14:29N 46°15' W 123°43'0 0.1
2018-Apr-07 13:56N 46°15' W 123°43'0 0.1
2018-Apr-07 13:29N 46°15' W 123°43'0 0.0
2018-Apr-07 12:59N 46°15' W 123°43'0 0.0
2018-Apr-07 12:29N 46°15' W 123°43'0 0.0
2018-Apr-07 11:59N 46°15' W 123°43'0 0.0
2018-Apr-07 11:26N 46°15' W 123°43'0 0.0
2018-Apr-07 10:59N 46°15' W 123°43'0 0.1
2018-Apr-07 10:29N 46°15' W 123°43'0 0.2
2018-Apr-07 09:59N 46°15' W 123°43'0 0.4
2018-Apr-07 09:29N 46°15' W 123°43'0 0.1
2018-Apr-07 08:59N 46°15' W 123°43'0 0.0
2018-Apr-07 08:29N 46°15' W 123°43'0 0.0
2018-Apr-07 07:59N 46°15' W 123°43'0 0.0
2018-Apr-07 07:29N 46°14' W 123°43'0 0.0
2018-Apr-07 06:59N 46°14' W 123°43'0 0.0
2018-Apr-07 06:29N 46°14' W 123°43'0 0.0
2018-Apr-07 05:56N 46°14' W 123°43'0 0.0
2018-Apr-07 05:26N 46°14' W 123°43'0 0.0
2018-Apr-07 04:59N 46°14' W 123°43'0 0.0
2018-Apr-07 04:11N 46°14' W 123°43'0 0.2
2018-Apr-07 03:59N 46°14' W 123°43'0 0.1
2018-Apr-07 03:14N 46°14' W 123°43'0 0.0
2018-Apr-07 02:59N 46°14' W 123°43'0 0.1
2018-Apr-07 02:17N 46°15' W 123°43'0 0.4
2018-Apr-07 01:59N 46°15' W 123°43'0 0.2
2018-Apr-07 01:29N 46°15' W 123°43'0 0.0
2018-Apr-07 00:56N 46°15' W 123°43'0 0.1
2018-Apr-07 00:29N 46°15' W 123°43'0 0.0
2018-Apr-06 23:59N 46°15' W 123°43'0 0.0
2018-Apr-06 23:29N 46°14' W 123°43'0 0.1
2018-Apr-06 22:59N 46°14' W 123°43'0 0.2
2018-Apr-06 22:29N 46°14' W 123°43'0 0.2
2018-Apr-06 21:56N 46°14' W 123°43'0 0.1
2018-Apr-06 21:29N 46°14' W 123°43'0 0.0
2018-Apr-06 20:59N 46°14' W 123°43'0 0.0
2018-Apr-06 20:29N 46°14' W 123°43'0 0.0
2018-Apr-06 19:56N 46°14' W 123°43'0 0.0
2018-Apr-06 19:29N 46°14' W 123°43'0 0.0
2018-Apr-06 18:59N 46°14' W 123°43'0 0.0
2018-Apr-06 18:23N 46°14' W 123°43'0 0.0
2018-Apr-06 17:59N 46°14' W 123°43'0 0.0
2018-Apr-06 17:26N 46°14' W 123°43'0 0.0
2018-Apr-06 16:47N 46°14' W 123°43'0 0.0
2018-Apr-06 16:29N 46°14' W 123°43'0 0.0
2018-Apr-06 15:56N 46°14' W 123°43'0 0.0
2018-Apr-06 15:29N 46°14' W 123°43'0 0.0
2018-Apr-06 14:56N 46°14' W 123°43'0 0.0
2018-Apr-06 14:29N 46°14' W 123°43'0 0.0
2018-Apr-06 13:59N 46°14' W 123°43'0 0.1
2018-Apr-06 13:26N 46°15' W 123°43'0 0.3
2018-Apr-06 12:59N 46°15' W 123°43'0 0.1
2018-Apr-06 12:29N 46°15' W 123°43'0 0.1
2018-Apr-06 11:59N 46°15' W 123°43'0 0.0
2018-Apr-06 11:29N 46°15' W 123°43'0 0.0
2018-Apr-06 10:59N 46°15' W 123°43'0 0.2
2018-Apr-06 10:29N 46°14' W 123°43'0 0.2
2018-Apr-06 09:59N 46°14' W 123°43'0 0.1
2018-Apr-06 09:26N 46°14' W 123°43'0 0.0
2018-Apr-06 08:59N 46°14' W 123°43'0 0.0
2018-Apr-06 08:29N 46°14' W 123°43'0 0.0
2018-Apr-06 07:59N 46°14' W 123°43'0 0.0
2018-Apr-06 07:29N 46°14' W 123°43'0 0.0
2018-Apr-06 06:56N 46°14' W 123°43'0 0.0
2018-Apr-06 06:29N 46°14' W 123°43'0 0.0
2018-Apr-06 05:59N 46°14' W 123°43'0 0.0
2018-Apr-06 05:29N 46°14' W 123°43'0 0.0
2018-Apr-06 04:56N 46°14' W 123°43'0 0.0
2018-Apr-06 04:29N 46°14' W 123°43'0 0.0
2018-Apr-06 03:59N 46°14' W 123°43'0 0.0
2018-Apr-06 03:26N 46°14' W 123°43'0 0.0
2018-Apr-06 02:59N 46°14' W 123°43'0 0.0
2018-Apr-06 02:29N 46°14' W 123°43'  
Track history (hours):
 
Tides and Currents Weather Stations Pressure Air Temp Water Temp Dewpoint Dewpoint Depression Visibility Wind Speed Wind Dir Waves Ship Positions

Star Mariella

Last reported at 2018-Apr-16 02:26 UTC. Time now 2018-Apr-24 10:38 UTC.
Position N 46°12' W 125°19'.
Warning: this ship's position is 8 days out of date.

Length 229 m; draft 12.7 m.

Type: Cargo ship. MMSI: 538002632.

Date/timePositionNaut miles runAvg speedWind from/ knotsBaromVisibWave heightAir tempDewpointWater temp
2018-Apr-16 02:26N 46°12' W 125°19'4 9.2
2018-Apr-16 02:00N 46°12' W 125°13'5 9.2
2018-Apr-16 01:30N 46°12' W 125°06'5 9.6
2018-Apr-16 01:00N 46°12' W 124°60'5 9.7
2018-Apr-16 00:31N 46°12' W 124°53'5 9.9
2018-Apr-16 00:01N 46°12' W 124°45'510.3
2018-Apr-15 23:31N 46°12' W 124°38'510.4
2018-Apr-15 23:00N 46°13' W 124°30'510.0
2018-Apr-15 22:31N 46°13' W 124°23'5 9.7
2018-Apr-15 22:01N 46°12' W 124°16'5 9.8
2018-Apr-15 21:31N 46°12' W 124°09'5 9.1
2018-Apr-15 21:01N 46°15' W 124°05'4 8.8
2018-Apr-15 20:31N 46°14' W 123°59'4 8.6
2018-Apr-15 20:00N 46°11' W 123°53'4 8.8
2018-Apr-15 19:31N 46°13' W 123°47'5 9.6
2018-Apr-15 19:00N 46°15' W 123°41'510.4
2018-Apr-15 18:31N 46°15' W 123°34'510.0
2018-Apr-15 18:01N 46°15' W 123°27'611.3
2018-Apr-15 17:31N 46°10' W 123°24'611.5
2018-Apr-15 17:00N 46°09' W 123°16'612.5
2018-Apr-15 16:30N 46°11' W 123°08'612.6
2018-Apr-15 16:00N 46°08' W 122°60'510.0
2018-Apr-15 15:30N 46°05' W 122°54'5 9.8
2018-Apr-15 15:00N 46°00' W 122°51'510.4
2018-Apr-15 14:30N 45°56' W 122°48'611.7
2018-Apr-15 14:00N 45°50' W 122°48'611.8
2018-Apr-15 13:30N 45°44' W 122°46'5 9.8
2018-Apr-15 13:00N 45°39' W 122°46'0 0.3
2018-Apr-15 12:29N 45°39' W 122°46'0 0.0
2018-Apr-15 11:59N 45°39' W 122°46'0 0.0
2018-Apr-15 11:26N 45°39' W 122°46'0 0.0
2018-Apr-15 10:56N 45°39' W 122°46'0 0.0
2018-Apr-15 10:23N 45°39' W 122°46'0 0.0
2018-Apr-15 09:56N 45°39' W 122°46'0 0.0
2018-Apr-15 09:20N 45°39' W 122°46'0 0.0
2018-Apr-15 08:58N 45°39' W 122°46'0 0.7
2018-Apr-15 08:30N 45°39' W 122°46'1 0.9
2018-Apr-15 07:52N 45°39' W 122°46'0 0.0
2018-Apr-15 07:29N 45°39' W 122°46'0 0.0
2018-Apr-15 06:58N 45°39' W 122°46'0 0.0
2018-Apr-15 06:26N 45°39' W 122°46'0 0.0
2018-Apr-15 05:59N 45°39' W 122°46'0 0.0
2018-Apr-15 05:02N 45°39' W 122°46'0 0.0
2018-Apr-15 04:58N 45°39' W 122°46'0 0.0
2018-Apr-15 04:25N 45°39' W 122°46'0 0.0
2018-Apr-15 03:59N 45°39' W 122°46'0 0.0
2018-Apr-15 03:29N 45°39' W 122°46'0 0.0
2018-Apr-15 02:59N 45°39' W 122°46'0 0.0
2018-Apr-15 02:29N 45°39' W 122°46'0 0.0
2018-Apr-15 01:59N 45°39' W 122°46'0 0.0
2018-Apr-15 01:29N 45°39' W 122°46'0 0.0
2018-Apr-15 00:59N 45°39' W 122°46'0 0.0
2018-Apr-15 00:25N 45°39' W 122°46'0 0.1
2018-Apr-14 23:56N 45°39' W 122°46'0 0.0
2018-Apr-14 23:28N 45°39' W 122°46'0 0.0
2018-Apr-14 22:55N 45°39' W 122°46'0 0.0
2018-Apr-14 22:29N 45°39' W 122°46'0 0.0
2018-Apr-14 21:56N 45°39' W 122°46'0 0.0
2018-Apr-14 21:25N 45°39' W 122°46'0 0.0
2018-Apr-14 20:52N 45°39' W 122°46'0 0.0
2018-Apr-14 20:02N 45°39' W 122°46'0 0.1
2018-Apr-14 19:58N 45°39' W 122°46'0 0.0
2018-Apr-14 19:29N 45°39' W 122°46'0 0.0
2018-Apr-14 18:58N 45°39' W 122°46'0 0.0
2018-Apr-14 18:25N 45°39' W 122°46'0 0.0
2018-Apr-14 17:59N 45°39' W 122°46'0 0.0
2018-Apr-14 17:29N 45°39' W 122°46'0 0.0
2018-Apr-14 16:59N 45°39' W 122°46'0 0.0
2018-Apr-14 16:29N 45°39' W 122°46'0 0.0
2018-Apr-14 15:55N 45°39' W 122°46'0 0.0
2018-Apr-14 15:29N 45°39' W 122°46'0 0.0
2018-Apr-14 14:58N 45°39' W 122°46'0 0.0
2018-Apr-14 14:22N 45°39' W 122°46'0 0.0
2018-Apr-14 13:55N 45°39' W 122°46'0 0.0
2018-Apr-14 13:20N 45°39' W 122°46'0 0.0
2018-Apr-14 12:56N 45°39' W 122°46'0 0.0
2018-Apr-14 12:29N 45°39' W 122°46'0 0.0
2018-Apr-14 11:59N 45°39' W 122°46'0 0.0
2018-Apr-14 11:28N 45°39' W 122°46'0 0.0
2018-Apr-14 10:55N 45°39' W 122°46'0 0.0
2018-Apr-14 10:01N 45°39' W 122°46'0 0.0
2018-Apr-14 09:58N 45°39' W 122°46'0 0.0
2018-Apr-14 09:28N 45°39' W 122°46'0 0.0
2018-Apr-14 08:50N 45°39' W 122°46'0 0.0
2018-Apr-14 08:23N 45°39' W 122°46'0 0.0
2018-Apr-14 07:56N 45°39' W 122°46'0 0.0
2018-Apr-14 07:28N 45°39' W 122°46'0 0.0
2018-Apr-14 06:59N 45°39' W 122°46'0 0.0
2018-Apr-14 06:28N 45°39' W 122°46'0 0.0
2018-Apr-14 05:44N 45°39' W 122°46'0 0.0
2018-Apr-14 05:28N 45°39' W 122°46'0 0.0
2018-Apr-14 04:56N 45°39' W 122°46'0 0.0
2018-Apr-14 04:22N 45°39' W 122°46'0 0.0
2018-Apr-14 03:38N 45°39' W 122°46'0 0.0
2018-Apr-14 03:20N 45°39' W 122°46'0 0.0
2018-Apr-14 02:49N 45°39' W 122°46'0 0.0
2018-Apr-14 02:28N 45°39' W 122°46'0 0.0
2018-Apr-14 01:58N 45°39' W 122°46'0 0.0
2018-Apr-14 01:28N 45°39' W 122°46'0 0.0
2018-Apr-14 00:52N 45°39' W 122°46'0 0.0
2018-Apr-14 00:28N 45°39' W 122°46'0 0.0
2018-Apr-13 23:59N 45°39' W 122°46'0 0.0
2018-Apr-13 23:25N 45°39' W 122°46'0 0.0
2018-Apr-13 22:52N 45°39' W 122°46'0 0.0
2018-Apr-13 22:25N 45°39' W 122°46'0 0.0
2018-Apr-13 21:58N 45°39' W 122°46'0 0.0
2018-Apr-13 21:23N 45°39' W 122°46'0 0.0
2018-Apr-13 20:52N 45°39' W 122°46'0 0.0
2018-Apr-13 20:26N 45°39' W 122°46'0 0.0
2018-Apr-13 19:53N 45°39' W 122°46'0 0.0
2018-Apr-13 19:29N 45°39' W 122°46'0 0.0
2018-Apr-13 18:59N 45°39' W 122°46'0 0.0
2018-Apr-13 18:14N 45°39' W 122°46'0 0.0
2018-Apr-13 17:59N 45°39' W 122°46'0 0.0
2018-Apr-13 17:16N 45°39' W 122°46'0 0.0
2018-Apr-13 16:38N 45°39' W 122°46'0 0.0
2018-Apr-13 16:25N 45°39' W 122°46'0 0.1
2018-Apr-13 15:58N 45°39' W 122°46'0 0.1
2018-Apr-13 15:25N 45°39' W 122°46'0 0.0
2018-Apr-13 14:58N 45°39' W 122°46'0 0.0
2018-Apr-13 14:28N 45°39' W 122°46'0 0.0
2018-Apr-13 13:58N 45°39' W 122°46'0 0.0
2018-Apr-13 13:25N 45°39' W 122°46'0 0.0
2018-Apr-13 12:58N 45°39' W 122°46'0 0.0
2018-Apr-13 12:28N 45°39' W 122°46'0 0.0
2018-Apr-13 11:59N 45°39' W 122°46'0 0.0
2018-Apr-13 11:28N 45°39' W 122°46'0 0.0
2018-Apr-13 10:58N 45°39' W 122°46'0 0.0
2018-Apr-13 10:28N 45°39' W 122°46'0 0.0
2018-Apr-13 09:52N 45°39' W 122°46'0 0.0
2018-Apr-13 09:25N 45°39' W 122°46'0 0.0
2018-Apr-13 08:58N 45°39' W 122°46'0 0.0
2018-Apr-13 08:28N 45°39' W 122°46'0 0.0
2018-Apr-13 07:52N 45°39' W 122°46'0 0.0
2018-Apr-13 07:28N 45°39' W 122°46'0 0.0
2018-Apr-13 06:55N 45°39' W 122°46'0 0.0
2018-Apr-13 06:28N 45°39' W 122°46'0 0.0
2018-Apr-13 05:58N 45°39' W 122°46'0 0.0
2018-Apr-13 05:28N 45°39' W 122°46'0 0.0
2018-Apr-13 04:58N 45°39' W 122°46'0 0.0
2018-Apr-13 04:28N 45°39' W 122°46'0 0.0
2018-Apr-13 03:40N 45°39' W 122°46'0 0.0
2018-Apr-13 03:20N 45°39' W 122°46'0 0.0
2018-Apr-13 02:58N 45°39' W 122°46'0 0.0
2018-Apr-13 02:28N 45°39' W 122°46'0 0.0
2018-Apr-13 01:52N 45°39' W 122°46'0 0.0
2018-Apr-13 01:19N 45°39' W 122°46'0 0.0
2018-Apr-13 00:58N 45°39' W 122°46'0 0.0
2018-Apr-13 00:28N 45°39' W 122°46'0 0.1
2018-Apr-12 23:43N 45°39' W 122°46'0 0.1
2018-Apr-12 23:22N 45°39' W 122°46'0 0.0
2018-Apr-12 22:58N 45°39' W 122°46'0 0.0
2018-Apr-12 22:28N 45°39' W 122°46'0 0.1
2018-Apr-12 21:52N 45°39' W 122°46'0 0.0
2018-Apr-12 21:28N 45°39' W 122°46'0 0.0
2018-Apr-12 20:31N 45°39' W 122°46'0 0.0
2018-Apr-12 20:16N 45°39' W 122°46'0 0.0
2018-Apr-12 19:58N 45°39' W 122°46'0 0.0
2018-Apr-12 19:28N 45°39' W 122°46'0 0.0
2018-Apr-12 18:58N 45°39' W 122°46'0 0.0
2018-Apr-12 18:25N 45°39' W 122°46'0 0.0
2018-Apr-12 17:52N 45°39' W 122°46'0 0.0
2018-Apr-12 17:25N 45°39' W 122°46'0 0.0
2018-Apr-12 16:58N 45°39' W 122°46'0 0.0
2018-Apr-12 16:25N 45°39' W 122°46'0 0.0
2018-Apr-12 15:58N 45°39' W 122°46'0 0.0
2018-Apr-12 15:22N 45°39' W 122°46'0 0.0
2018-Apr-12 14:58N 45°39' W 122°46'0 0.0
2018-Apr-12 14:28N 45°39' W 122°46'0 0.0
2018-Apr-12 13:58N 45°39' W 122°46'0 0.0
2018-Apr-12 13:28N 45°39' W 122°46'0 0.0
2018-Apr-12 12:43N 45°39' W 122°46'0 0.0
2018-Apr-12 12:22N 45°39' W 122°46'0 0.0
2018-Apr-12 11:58N 45°39' W 122°46'0 0.0
2018-Apr-12 11:25N 45°39' W 122°46'0 0.0
2018-Apr-12 10:58N 45°39' W 122°46'0 0.0
2018-Apr-12 10:28N 45°39' W 122°46'0 0.0
2018-Apr-12 09:58N 45°39' W 122°46'0 0.0
2018-Apr-12 09:28N 45°39' W 122°46'0 0.0
2018-Apr-12 08:58N 45°39' W 122°46'0 0.0
2018-Apr-12 08:28N 45°39' W 122°46'0 0.0
2018-Apr-12 07:58N 45°39' W 122°46'0 0.0
2018-Apr-12 07:22N 45°39' W 122°46'0 0.0
2018-Apr-12 06:58N 45°39' W 122°46'0 0.0
2018-Apr-12 06:25N 45°39' W 122°46'0 0.0
2018-Apr-12 05:55N 45°39' W 122°46'0 0.0
2018-Apr-12 05:28N 45°39' W 122°46'0 0.0
2018-Apr-12 04:55N 45°39' W 122°46'0 0.0
2018-Apr-12 04:25N 45°39' W 122°46'0 0.0
2018-Apr-12 03:58N 45°39' W 122°46'0 0.0
2018-Apr-12 03:25N 45°39' W 122°46'0 0.0
2018-Apr-12 02:58N 45°39' W 122°46'0 0.0
2018-Apr-12 02:28N 45°39' W 122°46'0 0.0
2018-Apr-12 01:58N 45°39' W 122°46'0 0.0
2018-Apr-12 01:28N 45°39' W 122°46'0 0.0
2018-Apr-12 00:43N 45°39' W 122°46'0 0.0
2018-Apr-12 00:28N 45°39' W 122°46'0 0.0
2018-Apr-11 23:58N 45°39' W 122°46'0 0.0
2018-Apr-11 23:25N 45°39' W 122°46'0 0.0
2018-Apr-11 22:58N 45°39' W 122°46'0 0.0
2018-Apr-11 22:28N 45°39' W 122°46'0 0.0
2018-Apr-11 21:52N 45°39' W 122°46'0 0.0
2018-Apr-11 21:25N 45°39' W 122°46'0 0.0
2018-Apr-11 20:58N 45°39' W 122°46'0 0.0
2018-Apr-11 20:28N 45°39' W 122°46'0 0.0
2018-Apr-11 19:55N 45°39' W 122°46'0 0.0
2018-Apr-11 19:28N 45°39' W 122°46'0 0.0
2018-Apr-11 18:58N 45°39' W 122°46'0 0.1
2018-Apr-11 18:28N 45°39' W 122°46'0 0.0
2018-Apr-11 17:55N 45°39' W 122°46'0 0.0
2018-Apr-11 17:28N 45°39' W 122°46'0 0.0
2018-Apr-11 16:58N 45°39' W 122°46'0 0.0
2018-Apr-11 16:25N 45°39' W 122°46'0 0.0
2018-Apr-11 15:58N 45°39' W 122°46'0 0.0
2018-Apr-11 15:28N 45°39' W 122°46'0 0.0
2018-Apr-11 14:58N 45°39' W 122°46'0 0.0
2018-Apr-11 14:19N 45°39' W 122°46'0 0.0
2018-Apr-11 13:46N 45°39' W 122°46'0 0.0
2018-Apr-11 13:28N 45°39' W 122°46'0 0.0
2018-Apr-11 12:55N 45°39' W 122°46'0 0.0
2018-Apr-11 12:28N 45°39' W 122°46'0 0.0
2018-Apr-11 11:55N 45°39' W 122°46'0 0.0
2018-Apr-11 11:28N 45°39' W 122°46'0 0.0
2018-Apr-11 10:58N 45°39' W 122°46'0 0.0
2018-Apr-11 10:25N 45°39' W 122°46'0 0.0
2018-Apr-11 09:52N 45°39' W 122°46'0 0.0
2018-Apr-11 09:28N 45°39' W 122°46'0 0.0
2018-Apr-11 08:58N 45°39' W 122°46'0 0.0
2018-Apr-11 08:22N 45°39' W 122°46'0 0.0
2018-Apr-11 07:58N 45°39' W 122°46'0 0.0
2018-Apr-11 07:25N 45°39' W 122°46'0 0.0
2018-Apr-11 06:55N 45°39' W 122°46'0 0.0
2018-Apr-11 06:28N 45°39' W 122°46'0 0.0
2018-Apr-11 05:58N 45°39' W 122°46'0 0.0
2018-Apr-11 05:19N 45°39' W 122°46'0 0.0
2018-Apr-11 04:58N 45°39' W 122°46'0 0.0
2018-Apr-11 04:25N 45°39' W 122°46'0 0.0
2018-Apr-11 03:58N 45°39' W 122°46'0 0.0
2018-Apr-11 03:28N 45°39' W 122°46'0 0.7
2018-Apr-11 03:00N 45°39' W 122°46'4 7.7
2018-Apr-11 02:30N 45°43' W 122°46'5 9.7
2018-Apr-11 02:00N 45°48' W 122°47'5 9.2
2018-Apr-11 01:29N 45°52' W 122°47'6 9.2
2018-Apr-11 00:47N 45°58' W 122°50'3 9.8
2018-Apr-11 00:30N 46°01' W 122°52'5 9.0
2018-Apr-11 00:00N 46°05' W 122°54'5 9.7
2018-Apr-10 23:30N 46°08' W 123°00'5 9.5
2018-Apr-10 23:00N 46°10' W 123°06'4 8.8
2018-Apr-10 22:30N 46°11' W 123°12'5 9.6
2018-Apr-10 22:00N 46°09' W 123°18'5 9.0
2018-Apr-10 21:30N 46°10' W 123°25'5 9.3
2018-Apr-10 21:00N 46°15' W 123°26'4 8.9
2018-Apr-10 20:30N 46°16' W 123°32'510.6
2018-Apr-10 20:00N 46°15' W 123°40'2 4.3
2018-Apr-10 19:26N 46°14' W 123°43'0 0.1
2018-Apr-10 18:53N 46°14' W 123°43'0 0.0
2018-Apr-10 18:26N 46°14' W 123°43'0 0.2
2018-Apr-10 17:56N 46°15' W 123°43'0 0.2
2018-Apr-10 17:30N 46°15' W 123°43'0 0.1
2018-Apr-10 16:59N 46°15' W 123°43'0 0.0
2018-Apr-10 16:29N 46°15' W 123°43'0 0.0
2018-Apr-10 16:00N 46°15' W 123°43'0 0.0
2018-Apr-10 15:29N 46°15' W 123°43'0 0.2
2018-Apr-10 14:56N 46°15' W 123°43'0 0.1
2018-Apr-10 14:30N 46°15' W 123°43'0 0.0
2018-Apr-10 13:59N 46°15' W 123°43'0 0.0
2018-Apr-10 13:30N 46°15' W 123°43'0 0.5
2018-Apr-10 12:59N 46°14' W 123°43'0 0.0
2018-Apr-10 12:29N 46°14' W 123°43'0 0.1
2018-Apr-10 11:56N 46°14' W 123°43'0 0.1
2018-Apr-10 11:02N 46°14' W 123°43'0 0.0
2018-Apr-10 10:59N 46°14' W 123°43'0 0.1
2018-Apr-10 10:29N 46°14' W 123°43'0 0.0
2018-Apr-10 09:53N 46°14' W 123°43'0 0.1
2018-Apr-10 09:29N 46°14' W 123°43'0 0.0
2018-Apr-10 08:59N 46°14' W 123°43'0 0.1
2018-Apr-10 08:29N 46°14' W 123°43'0 0.0
2018-Apr-10 07:59N 46°14' W 123°43'0 0.0
2018-Apr-10 07:23N 46°14' W 123°43'0 0.0
2018-Apr-10 06:59N 46°14' W 123°43'0 0.1
2018-Apr-10 06:29N 46°14' W 123°43'0 0.1
2018-Apr-10 05:59N 46°14' W 123°43'0 0.0
2018-Apr-10 05:29N 46°14' W 123°43'0 0.0
2018-Apr-10 04:56N 46°14' W 123°43'0 0.1
2018-Apr-10 04:29N 46°14' W 123°43'0 0.1
2018-Apr-10 03:53N 46°14' W 123°43'0 0.0
2018-Apr-10 03:29N 46°14' W 123°43'0 0.0
2018-Apr-10 02:43N 46°14' W 123°43'0 0.2
2018-Apr-10 02:29N 46°14' W 123°43'0 0.1
2018-Apr-10 01:59N 46°14' W 123°43'0 0.0
2018-Apr-10 01:29N 46°14' W 123°43'0 0.0
2018-Apr-10 00:59N 46°14' W 123°43'0 0.0
2018-Apr-10 00:29N 46°14' W 123°43'0 0.0
2018-Apr-09 23:59N 46°14' W 123°43'0 0.0
2018-Apr-09 23:29N 46°14' W 123°43'0 0.0
2018-Apr-09 22:56N 46°14' W 123°43'0 0.0
2018-Apr-09 22:29N 46°14' W 123°43'0 0.0
2018-Apr-09 21:38N 46°14' W 123°43'0 0.0
2018-Apr-09 21:29N 46°14' W 123°43'0 0.0
2018-Apr-09 20:59N 46°14' W 123°43'0 0.0
2018-Apr-09 20:29N 46°14' W 123°43'0 0.0
2018-Apr-09 19:53N 46°14' W 123°43'0 0.0
2018-Apr-09 19:17N 46°14' W 123°43'0 0.0
2018-Apr-09 18:59N 46°14' W 123°43'0 0.0
2018-Apr-09 18:26N 46°14' W 123°43'0 0.0
2018-Apr-09 17:47N 46°14' W 123°43'0 0.0
2018-Apr-09 17:14N 46°14' W 123°43'0 0.1
2018-Apr-09 16:50N 46°14' W 123°43'0 0.0
2018-Apr-09 16:29N 46°14' W 123°43'0 0.1
2018-Apr-09 15:59N 46°14' W 123°43'0 0.0
2018-Apr-09 15:29N 46°14' W 123°43'0 0.1
2018-Apr-09 14:56N 46°14' W 123°43'0 0.0
2018-Apr-09 14:29N 46°14' W 123°43'0 0.0
2018-Apr-09 13:56N 46°14' W 123°43'0 0.0
2018-Apr-09 13:29N 46°14' W 123°43'0 0.0
2018-Apr-09 12:59N 46°14' W 123°43'0 0.0
2018-Apr-09 12:17N 46°14' W 123°43'0 0.0
2018-Apr-09 11:41N 46°14' W 123°43'0 0.0
2018-Apr-09 11:29N 46°14' W 123°43'0 0.0
2018-Apr-09 10:47N 46°14' W 123°43'0 0.0
2018-Apr-09 10:29N 46°14' W 123°43'0 0.0
2018-Apr-09 09:59N 46°14' W 123°43'0 0.0
2018-Apr-09 09:29N 46°14' W 123°43'0 0.0
2018-Apr-09 08:59N 46°14' W 123°43'0 0.0
2018-Apr-09 08:29N 46°14' W 123°43'0 0.0
2018-Apr-09 07:59N 46°14' W 123°43'0 0.0
2018-Apr-09 07:29N 46°14' W 123°43'0 0.0
2018-Apr-09 06:53N 46°14' W 123°43'0 0.0
2018-Apr-09 06:29N 46°14' W 123°43'0 0.0
2018-Apr-09 05:59N 46°14' W 123°43'0 0.1
2018-Apr-09 05:29N 46°14' W 123°43'0 0.1
2018-Apr-09 04:59N 46°14' W 123°43'0 0.1
2018-Apr-09 04:29N 46°15' W 123°43'0 0.2
2018-Apr-09 03:59N 46°15' W 123°43'0 0.1
2018-Apr-09 03:29N 46°15' W 123°43'0 0.1
2018-Apr-09 02:53N 46°14' W 123°43'0 0.0
2018-Apr-09 02:29N 46°14' W 123°43'0 0.1
2018-Apr-09 01:59N 46°14' W 123°43'0 0.1
2018-Apr-09 01:29N 46°14' W 123°43'0 0.2
2018-Apr-09 00:59N 46°14' W 123°43'0 0.1
2018-Apr-09 00:29N 46°14' W 123°43'0 0.1
2018-Apr-08 23:59N 46°14' W 123°43'0 0.0
2018-Apr-08 23:29N 46°14' W 123°43'0 0.0
2018-Apr-08 22:59N 46°14' W 123°43'0 0.0
2018-Apr-08 22:29N 46°14' W 123°43'0 0.0
2018-Apr-08 21:47N 46°14' W 123°43'0 0.0
2018-Apr-08 21:26N 46°14' W 123°43'0 0.0
2018-Apr-08 20:59N 46°14' W 123°43'0 0.0
2018-Apr-08 20:29N 46°14' W 123°43'0 0.0
2018-Apr-08 19:53N 46°14' W 123°43'0 0.0
2018-Apr-08 19:11N 46°14' W 123°43'0 0.1
2018-Apr-08 18:59N 46°14' W 123°43'0 0.0
2018-Apr-08 18:29N 46°14' W 123°43'0 0.1
2018-Apr-08 17:59N 46°14' W 123°43'0 0.1
2018-Apr-08 17:26N 46°15' W 123°43'0 0.1
2018-Apr-08 16:59N 46°15' W 123°43'0 0.1
2018-Apr-08 15:53N 46°15' W 123°43'0 0.0
2018-Apr-08 15:29N 46°15' W 123°43'0 0.0
2018-Apr-08 14:59N 46°15' W 123°43'0 0.1
2018-Apr-08 14:26N 46°15' W 123°43'0 0.1
2018-Apr-08 13:56N 46°15' W 123°43'0 0.1
2018-Apr-08 13:29N 46°15' W 123°43'0 0.2
2018-Apr-08 12:59N 46°15' W 123°43'0 0.1
2018-Apr-08 12:29N 46°15' W 123°43'0 0.0
2018-Apr-08 11:56N 46°15' W 123°43'0 0.0
2018-Apr-08 11:29N 46°15' W 123°43'0 0.1
2018-Apr-08 10:59N 46°15' W 123°43'0 0.0
2018-Apr-08 10:29N 46°15' W 123°43'0 0.0
2018-Apr-08 09:59N 46°15' W 123°43'0 0.1
2018-Apr-08 09:29N 46°15' W 123°43'0 0.2
2018-Apr-08 08:59N 46°15' W 123°43'0 0.0
2018-Apr-08 08:29N 46°15' W 123°43'0 0.1
2018-Apr-08 07:59N 46°15' W 123°43'0 0.1
2018-Apr-08 07:29N 46°15' W 123°43'0 0.0
2018-Apr-08 06:47N 46°15' W 123°43'0 0.1
2018-Apr-08 06:26N 46°15' W 123°43'0 0.1
2018-Apr-08 05:56N 46°15' W 123°43'0 0.1
2018-Apr-08 05:26N 46°15' W 123°43'0 0.1
2018-Apr-08 04:59N 46°15' W 123°43'0 0.0
2018-Apr-08 04:11N 46°15' W 123°43'0 0.2
2018-Apr-08 03:56N 46°15' W 123°43'0 0.0
2018-Apr-08 03:29N 46°15' W 123°43'0 0.0
2018-Apr-08 02:41N 46°15' W 123°43'0 0.0
2018-Apr-08 02:17N 46°15' W 123°43'0 0.1
2018-Apr-08 01:59N 46°15' W 123°43'0 0.2
2018-Apr-08 01:29N 46°15' W 123°43'0 0.1
2018-Apr-08 00:59N 46°15' W 123°43'0 0.1
2018-Apr-08 00:29N 46°15' W 123°43'0 0.1
2018-Apr-07 23:59N 46°15' W 123°43'0 0.0
2018-Apr-07 23:29N 46°15' W 123°43'0 0.2
2018-Apr-07 22:59N 46°15' W 123°43'0 0.1
2018-Apr-07 22:29N 46°15' W 123°43'0 0.1
2018-Apr-07 21:59N 46°15' W 123°43'0 0.3
2018-Apr-07 21:29N 46°14' W 123°43'0 0.0
2018-Apr-07 20:59N 46°14' W 123°43'0 0.0
2018-Apr-07 20:29N 46°14' W 123°43'0 0.0
2018-Apr-07 19:56N 46°14' W 123°43'0 0.1
2018-Apr-07 19:26N 46°14' W 123°43'0 0.0
2018-Apr-07 18:59N 46°14' W 123°43'0 0.0
2018-Apr-07 18:29N 46°14' W 123°43'0 0.1
2018-Apr-07 17:59N 46°14' W 123°43'0 0.1
2018-Apr-07 17:11N 46°15' W 123°43'0 0.0
2018-Apr-07 16:59N 46°15' W 123°43'0 0.1
2018-Apr-07 16:26N 46°15' W 123°43'0 0.2
2018-Apr-07 15:56N 46°15' W 123°43'0 0.0
2018-Apr-07 15:26N 46°15' W 123°43'0 0.1
2018-Apr-07 14:41N 46°15' W 123°43'0 0.2
2018-Apr-07 14:29N 46°15' W 123°43'0 0.1
2018-Apr-07 13:56N 46°15' W 123°43'0 0.1
2018-Apr-07 13:29N 46°15' W 123°43'0 0.0
2018-Apr-07 12:59N 46°15' W 123°43'0 0.0
2018-Apr-07 12:29N 46°15' W 123°43'0 0.0
2018-Apr-07 11:59N 46°15' W 123°43'0 0.0
2018-Apr-07 11:26N 46°15' W 123°43'0 0.0
2018-Apr-07 10:59N 46°15' W 123°43'0 0.1
2018-Apr-07 10:29N 46°15' W 123°43'0 0.2
2018-Apr-07 09:59N 46°15' W 123°43'0 0.4
2018-Apr-07 09:29N 46°15' W 123°43'0 0.1
2018-Apr-07 08:59N 46°15' W 123°43'0 0.0
2018-Apr-07 08:29N 46°15' W 123°43'0 0.0
2018-Apr-07 07:59N 46°15' W 123°43'0 0.0
2018-Apr-07 07:29N 46°14' W 123°43'0 0.0
2018-Apr-07 06:59N 46°14' W 123°43'0 0.0
2018-Apr-07 06:29N 46°14' W 123°43'0 0.0
2018-Apr-07 05:56N 46°14' W 123°43'0 0.0
2018-Apr-07 05:26N 46°14' W 123°43'0 0.0
2018-Apr-07 04:59N 46°14' W 123°43'0 0.0
2018-Apr-07 04:11N 46°14' W 123°43'0 0.2
2018-Apr-07 03:59N 46°14' W 123°43'0 0.1
2018-Apr-07 03:14N 46°14' W 123°43'0 0.0
2018-Apr-07 02:59N 46°14' W 123°43'0 0.1
2018-Apr-07 02:17N 46°15' W 123°43'0 0.4
2018-Apr-07 01:59N 46°15' W 123°43'0 0.2
2018-Apr-07 01:29N 46°15' W 123°43'0 0.0
2018-Apr-07 00:56N 46°15' W 123°43'0 0.1
2018-Apr-07 00:29N 46°15' W 123°43'0 0.0
2018-Apr-06 23:59N 46°15' W 123°43'0 0.0
2018-Apr-06 23:29N 46°14' W 123°43'0 0.1
2018-Apr-06 22:59N 46°14' W 123°43'0 0.2
2018-Apr-06 22:29N 46°14' W 123°43'0 0.2
2018-Apr-06 21:56N 46°14' W 123°43'0 0.1
2018-Apr-06 21:29N 46°14' W 123°43'0 0.0
2018-Apr-06 20:59N 46°14' W 123°43'0 0.0
2018-Apr-06 20:29N 46°14' W 123°43'0 0.0
2018-Apr-06 19:56N 46°14' W 123°43'0 0.0
2018-Apr-06 19:29N 46°14' W 123°43'0 0.0
2018-Apr-06 18:59N 46°14' W 123°43'0 0.0
2018-Apr-06 18:23N 46°14' W 123°43'0 0.0
2018-Apr-06 17:59N 46°14' W 123°43'0 0.0
2018-Apr-06 17:26N 46°14' W 123°43'0 0.0
2018-Apr-06 16:47N 46°14' W 123°43'0 0.0
2018-Apr-06 16:29N 46°14' W 123°43'0 0.0
2018-Apr-06 15:56N 46°14' W 123°43'0 0.0
2018-Apr-06 15:29N 46°14' W 123°43'0 0.0
2018-Apr-06 14:56N 46°14' W 123°43'0 0.0
2018-Apr-06 14:29N 46°14' W 123°43'0 0.0
2018-Apr-06 13:59N 46°14' W 123°43'0 0.1
2018-Apr-06 13:26N 46°15' W 123°43'0 0.3
2018-Apr-06 12:59N 46°15' W 123°43'0 0.1
2018-Apr-06 12:29N 46°15' W 123°43'0 0.1
2018-Apr-06 11:59N 46°15' W 123°43'0 0.0
2018-Apr-06 11:29N 46°15' W 123°43'0 0.0
2018-Apr-06 10:59N 46°15' W 123°43'0 0.2
2018-Apr-06 10:29N 46°14' W 123°43'0 0.2
2018-Apr-06 09:59N 46°14' W 123°43'0 0.1
2018-Apr-06 09:26N 46°14' W 123°43'0 0.0
2018-Apr-06 08:59N 46°14' W 123°43'0 0.0
2018-Apr-06 08:29N 46°14' W 123°43'0 0.0
2018-Apr-06 07:59N 46°14' W 123°43'0 0.0
2018-Apr-06 07:29N 46°14' W 123°43'0 0.0
2018-Apr-06 06:56N 46°14' W 123°43'0 0.0
2018-Apr-06 06:29N 46°14' W 123°43'0 0.0
2018-Apr-06 05:59N 46°14' W 123°43'0 0.0
2018-Apr-06 05:29N 46°14' W 123°43'0 0.0
2018-Apr-06 04:56N 46°14' W 123°43'0 0.0
2018-Apr-06 04:29N 46°14' W 123°43'0 0.0
2018-Apr-06 03:59N 46°14' W 123°43'0 0.0
2018-Apr-06 03:26N 46°14' W 123°43'0 0.0
2018-Apr-06 02:59N 46°14' W 123°43'0 0.0
2018-Apr-06 02:29N 46°14' W 123°43'  

Dump ship's entire track history